68°F
Crown Heights Area, Poughkeepsie, NY, USA
UpdatedMay-26-2017 12:38 
 

Nearby METAR Reports

 

KPOU - Poughkeepsie, New York, USA
Distance from station: ENE 2mi, 4km
Updated: Fri, 26-May-2017 11:53am EDT
Overcast
Overcast
 Wind from SSW
Wind: SSW 7 mph , 11 km/h
Temperature: 63°F , 17°C
Dew Point: 57°F , 14°C
Humidity: 83%
Barometer: 29.56 inHg , 1001 hPa
Clouds: Overcast
Visibility: 10 miles , 16 km
Cloud details: Partly cloudy 1300 ft
Mostly cloudy 2100 ft
Overcast 4500 ft
2017/05/26 15:53 KPOU 261553Z 21006KT 10SM SCT013 BKN021 OVC045 17/14 A2956 RMK AO2 SLP007 T01720139
KSWF - Newburgh/Stewart, New York, USA
Distance from station: SW 12mi, 19km
Updated: Fri, 26-May-2017 12:15pm EDT
Mostly cloudy
Mostly cloudy
 Wind from W
Wind: W 12 mph , 19 km/h, Gust: 21 mph , 33 km/h
Temperature: 70°F , 21°C
Dew Point: 61°F , 16°C
Humidity: 73%
Barometer: 29.59 inHg , 1002 hPa
Clouds: Mostly cloudy
Visibility: 10 miles , 16 km
Cloud details: Mostly cloudy 3000 ft
2017/05/26 16:15 KSWF 261615Z 28010G18KT 10SM BKN030 21/16 A2959
 
KMGJ - Montgomery, New York, USA
Distance from station: WSW 19mi, 31km
Updated: Fri, 26-May-2017 11:54am EDT
Partly cloudy
Partly cloudy
 Wind from WNW
Wind: WNW 17 mph , 28 km/h, Gust: 25 mph , 41 km/h
Temperature: 70°F , 21°C
Dew Point: 57°F , 14°C
Humidity: 64%
Barometer: 29.57 inHg , 1001.4 hPa
Clouds: Partly cloudy
Visibility: 10 miles , 16 km
Cloud details: Partly cloudy 3000 ft
2017/05/26 15:54 KMGJ 261554Z AUTO 30015G22KT 10SM SCT030 21/14 A2957 RMK AO2 SLP012 T02060139 TSNO
KDXR - Danbury, Connecticut, USA
Distance from station: SE 29mi, 46km
Updated: Fri, 26-May-2017 11:53am EDT
Mostly cloudy
Mostly cloudy
 Wind from W
Wind: W 7 mph , 11 km/h
Temperature: 63°F , 17°C
Dew Point: 57°F , 14°C
Humidity: 83%
Barometer: 29.58 inHg , 1001.7 hPa
Clouds: Mostly cloudy
Visibility: 10 miles , 16 km
Cloud details: Mostly cloudy 1900 ft
Mostly cloudy 2600 ft
2017/05/26 15:53 KDXR 261553Z 28006KT 10SM BKN019 BKN026 17/14 A2958 RMK AO2 SLP016 T01720144
 
KHPN - White Plains, New York, USA
Distance from station: SSE 40mi, 64km
Updated: Fri, 26-May-2017 11:56am EDT
Mostly cloudy
Mostly cloudy
 Wind from WNW
Wind: WNW 15 mph , 24 km/h, Gust: 21 mph , 33 km/h
Temperature: 68°F , 20°C
Dew Point: 57°F , 14°C
Humidity: 69%
Barometer: 29.58 inHg , 1001.7 hPa
Clouds: Mostly cloudy
Visibility: 10 miles , 16 km
Cloud details: Few Clouds 800 ft
Mostly cloudy 1200 ft
2017/05/26 15:56 KHPN 261556Z 30013G18KT 10SM FEW008 BKN012 20/14 A2958 RMK AO2 SLP013 T02000144
KOXC - Oxford/Waterbury, Connecticut, USA
Distance from station: ESE 42mi, 68km
Updated: Fri, 26-May-2017 12:32pm EDT
Overcast
Overcast
 Wind from NNW
Wind: NNW 5 mph , 7 km/h
Temperature: 61°F , 16°C
Dew Point: 54°F , 12°C
Humidity: 77%
Barometer: 29.59 inHg , 1002 hPa
Clouds: Overcast
Visibility: 10 miles , 16 km
Cloud details: Overcast 1400 ft
2017/05/26 16:32 KOXC 261632Z 33004KT 10SM OVC014 16/12 A2959
 
KMSV - Monticello, New York, USA
Distance from station: W 45mi, 72km
Updated: Fri, 26-May-2017 12:35pm EDT
Overcast
Overcast
 Wind from WNW
Wind: WNW 14 mph , 22 km/h, Gust: 20 mph , 31 km/h
Temperature: 61°F , 16°C
Dew Point: 55°F , 13°C
Humidity: 83%
Barometer: 29.64 inHg , 1003.7 hPa
Clouds: Overcast
Visibility: 10 miles , 16 km
Cloud details: Few Clouds 2700 ft
Mostly cloudy 3600 ft
Overcast 4300 ft
2017/05/26 16:35 KMSV 261635Z AUTO 30012G17KT 10SM FEW027 BKN036 OVC043 16/13 A2964 RMK AO1
KFWN - Sussex, New Jersey, USA
Distance from station: SW 47mi, 75km
Updated: Fri, 26-May-2017 11:53am EDT
Overcast
Overcast
 Wind from W
Wind: W 13 mph , 20 km/h, Gust: 21 mph , 33 km/h
Temperature: 70°F , 21°C
Dew Point: 55°F , 13°C
Humidity: 60%
Barometer: 29.60 inHg , 1002.4 hPa
Clouds: Overcast
Visibility: 10 miles , 16 km
Cloud details: Overcast 4300 ft
2017/05/26 15:53 KFWN 261553Z AUTO 26011G18KT 10SM OVC043 21/13 A2960 RMK AO2 SLP022 T02110128